sensor_id;sensor_type;location;lat;lon;timestamp;P1;durP1;ratioP1;P2;durP2;ratioP2
36585;SDS011;22591;48.314;11.562;2023-12-20T00:01:45;2.70;;;2.50;;
36585;SDS011;22591;48.314;11.562;2023-12-20T00:04:11;2.75;;;2.55;;
36585;SDS011;22591;48.314;11.562;2023-12-20T00:06:36;4.55;;;3.25;;
36585;SDS011;22591;48.314;11.562;2023-12-20T00:09:02;3.08;;;2.80;;
36585;SDS011;22591;48.314;11.562;2023-12-20T00:11:27;3.15;;;2.95;;
36585;SDS011;22591;48.314;11.562;2023-12-20T00:13:53;3.08;;;2.53;;
36585;SDS011;22591;48.314;11.562;2023-12-20T00:16:18;5.68;;;3.42;;
36585;SDS011;22591;48.314;11.562;2023-12-20T00:18:44;2.97;;;2.78;;
36585;SDS011;22591;48.314;11.562;2023-12-20T00:21:10;3.10;;;2.83;;
36585;SDS011;22591;48.314;11.562;2023-12-20T00:23:36;3.08;;;2.80;;
36585;SDS011;22591;48.314;11.562;2023-12-20T00:26:01;3.00;;;2.80;;
36585;SDS011;22591;48.314;11.562;2023-12-20T00:28:27;2.90;;;2.70;;
36585;SDS011;22591;48.314;11.562;2023-12-20T00:30:53;2.50;;;2.38;;
36585;SDS011;22591;48.314;11.562;2023-12-20T00:33:18;2.95;;;2.75;;
36585;SDS011;22591;48.314;11.562;2023-12-20T00:35:44;3.90;;;2.40;;
36585;SDS011;22591;48.314;11.562;2023-12-20T00:38:09;2.80;;;2.60;;
36585;SDS011;22591;48.314;11.562;2023-12-20T00:40:36;3.00;;;2.90;;
36585;SDS011;22591;48.314;11.562;2023-12-20T00:43:02;2.75;;;2.55;;
36585;SDS011;22591;48.314;11.562;2023-12-20T00:45:27;3.05;;;2.80;;
36585;SDS011;22591;48.314;11.562;2023-12-20T00:47:53;2.55;;;2.35;;
36585;SDS011;22591;48.314;11.562;2023-12-20T00:50:18;3.00;;;2.80;;
36585;SDS011;22591;48.314;11.562;2023-12-20T00:52:46;3.30;;;3.10;;
36585;SDS011;22591;48.314;11.562;2023-12-20T00:55:11;2.63;;;2.42;;
36585;SDS011;22591;48.314;11.562;2023-12-20T00:57:36;2.47;;;2.35;;
36585;SDS011;22591;48.314;11.562;2023-12-20T01:00:02;3.20;;;2.92;;
36585;SDS011;22591;48.314;11.562;2023-12-20T01:02:28;2.88;;;2.67;;
36585;SDS011;22591;48.314;11.562;2023-12-20T01:04:54;2.42;;;2.30;;
36585;SDS011;22591;48.314;11.562;2023-12-20T01:07:19;3.03;;;2.83;;
36585;SDS011;22591;48.314;11.562;2023-12-20T01:09:45;3.28;;;3.08;;
36585;SDS011;22591;48.314;11.562;2023-12-20T01:12:10;3.17;;;2.58;;
36585;SDS011;22591;48.314;11.562;2023-12-20T01:14:36;2.60;;;2.45;;
36585;SDS011;22591;48.314;11.562;2023-12-20T01:17:01;2.95;;;2.75;;
36585;SDS011;22591;48.314;11.562;2023-12-20T01:19:27;2.78;;;2.53;;
36585;SDS011;22591;48.314;11.562;2023-12-20T01:21:54;3.28;;;3.08;;
36585;SDS011;22591;48.314;11.562;2023-12-20T01:24:20;2.70;;;2.50;;
36585;SDS011;22591;48.314;11.562;2023-12-20T01:26:45;2.92;;;2.72;;
36585;SDS011;22591;48.314;11.562;2023-12-20T01:29:11;2.25;;;2.15;;
36585;SDS011;22591;48.314;11.562;2023-12-20T01:31:38;3.00;;;2.80;;
36585;SDS011;22591;48.314;11.562;2023-12-20T01:34:03;2.95;;;2.75;;
36585;SDS011;22591;48.314;11.562;2023-12-20T01:36:29;2.85;;;2.65;;
36585;SDS011;22591;48.314;11.562;2023-12-20T01:38:54;3.20;;;2.60;;
36585;SDS011;22591;48.314;11.562;2023-12-20T01:41:20;3.10;;;2.90;;
36585;SDS011;22591;48.314;11.562;2023-12-20T01:43:45;3.30;;;3.00;;
36585;SDS011;22591;48.314;11.562;2023-12-20T01:46:11;2.67;;;2.50;;
36585;SDS011;22591;48.314;11.562;2023-12-20T01:48:37;3.40;;;3.20;;
36585;SDS011;22591;48.314;11.562;2023-12-20T01:51:03;2.90;;;2.70;;
36585;SDS011;22591;48.314;11.562;2023-12-20T01:53:30;2.80;;;2.60;;
36585;SDS011;22591;48.314;11.562;2023-12-20T01:55:57;2.25;;;2.13;;
36585;SDS011;22591;48.314;11.562;2023-12-20T01:58:23;2.25;;;2.15;;
36585;SDS011;22591;48.314;11.562;2023-12-20T02:00:50;2.67;;;2.47;;
36585;SDS011;22591;48.314;11.562;2023-12-20T02:03:16;2.33;;;2.22;;
36585;SDS011;22591;48.314;11.562;2023-12-20T02:05:43;2.50;;;2.30;;
36585;SDS011;22591;48.314;11.562;2023-12-20T02:08:10;2.33;;;2.22;;
36585;SDS011;22591;48.314;11.562;2023-12-20T02:10:35;2.13;;;1.85;;
36585;SDS011;22591;48.314;11.562;2023-12-20T02:13:01;2.33;;;2.22;;
36585;SDS011;22591;48.314;11.562;2023-12-20T02:15:27;2.47;;;2.28;;
36585;SDS011;22591;48.314;11.562;2023-12-20T02:17:52;2.38;;;2.28;;
36585;SDS011;22591;48.314;11.562;2023-12-20T02:20:19;2.10;;;2.00;;
36585;SDS011;22591;48.314;11.562;2023-12-20T02:22:44;2.35;;;2.25;;
36585;SDS011;22591;48.314;11.562;2023-12-20T02:25:10;1.90;;;1.80;;
36585;SDS011;22591;48.314;11.562;2023-12-20T02:27:36;1.83;;;1.73;;
36585;SDS011;22591;48.314;11.562;2023-12-20T02:30:01;3.33;;;3.08;;
36585;SDS011;22591;48.314;11.562;2023-12-20T02:32:28;2.00;;;1.90;;
36585;SDS011;22591;48.314;11.562;2023-12-20T02:34:54;3.15;;;2.90;;
36585;SDS011;22591;48.314;11.562;2023-12-20T02:37:20;2.15;;;2.03;;
36585;SDS011;22591;48.314;11.562;2023-12-20T02:39:46;2.40;;;2.30;;
36585;SDS011;22591;48.314;11.562;2023-12-20T02:42:11;3.22;;;2.03;;
36585;SDS011;22591;48.314;11.562;2023-12-20T02:44:37;2.17;;;2.08;;
36585;SDS011;22591;48.314;11.562;2023-12-20T02:47:03;2.35;;;2.20;;
36585;SDS011;22591;48.314;11.562;2023-12-20T02:49:28;2.53;;;2.28;;
36585;SDS011;22591;48.314;11.562;2023-12-20T02:51:54;2.85;;;2.65;;
36585;SDS011;22591;48.314;11.562;2023-12-20T02:54:19;2.88;;;2.67;;
36585;SDS011;22591;48.314;11.562;2023-12-20T02:56:45;2.10;;;2.00;;
36585;SDS011;22591;48.314;11.562;2023-12-20T02:59:10;1.77;;;1.67;;
36585;SDS011;22591;48.314;11.562;2023-12-20T03:01:41;1.88;;;1.77;;
36585;SDS011;22591;48.314;11.562;2023-12-20T03:04:09;2.97;;;2.60;;
36585;SDS011;22591;48.314;11.562;2023-12-20T03:06:35;3.90;;;3.60;;
36585;SDS011;22591;48.314;11.562;2023-12-20T03:09:00;3.97;;;3.67;;
36585;SDS011;22591;48.314;11.562;2023-12-20T03:11:26;2.80;;;2.60;;
36585;SDS011;22591;48.314;11.562;2023-12-20T03:13:52;2.15;;;2.05;;
36585;SDS011;22591;48.314;11.562;2023-12-20T03:16:18;1.92;;;1.83;;
36585;SDS011;22591;48.314;11.562;2023-12-20T03:18:43;1.67;;;1.58;;
36585;SDS011;22591;48.314;11.562;2023-12-20T03:21:09;1.90;;;1.80;;
36585;SDS011;22591;48.314;11.562;2023-12-20T03:23:34;1.98;;;1.88;;
36585;SDS011;22591;48.314;11.562;2023-12-20T03:26:00;1.92;;;1.83;;
36585;SDS011;22591;48.314;11.562;2023-12-20T03:28:26;1.63;;;1.52;;
36585;SDS011;22591;48.314;11.562;2023-12-20T03:30:52;1.80;;;1.70;;
36585;SDS011;22591;48.314;11.562;2023-12-20T03:33:18;1.70;;;1.60;;
36585;SDS011;22591;48.314;11.562;2023-12-20T03:35:44;1.95;;;1.85;;
36585;SDS011;22591;48.314;11.562;2023-12-20T03:38:09;5.82;;;1.90;;
36585;SDS011;22591;48.314;11.562;2023-12-20T03:40:35;1.80;;;1.70;;
36585;SDS011;22591;48.314;11.562;2023-12-20T03:43:00;1.85;;;1.75;;
36585;SDS011;22591;48.314;11.562;2023-12-20T03:45:26;1.75;;;1.65;;
36585;SDS011;22591;48.314;11.562;2023-12-20T03:47:51;2.05;;;1.95;;
36585;SDS011;22591;48.314;11.562;2023-12-20T03:50:22;1.60;;;1.50;;
36585;SDS011;22591;48.314;11.562;2023-12-20T03:52:48;2.00;;;1.90;;
36585;SDS011;22591;48.314;11.562;2023-12-20T03:55:13;1.98;;;1.88;;
36585;SDS011;22591;48.314;11.562;2023-12-20T03:57:40;1.80;;;1.70;;
36585;SDS011;22591;48.314;11.562;2023-12-20T04:00:06;1.88;;;1.77;;
36585;SDS011;22591;48.314;11.562;2023-12-20T04:02:38;2.05;;;1.95;;
36585;SDS011;22591;48.314;11.562;2023-12-20T04:07:34;2.83;;;2.08;;
36585;SDS011;22591;48.314;11.562;2023-12-20T04:10:00;2.28;;;2.17;;
36585;SDS011;22591;48.314;11.562;2023-12-20T04:12:27;1.75;;;1.65;;
36585;SDS011;22591;48.314;11.562;2023-12-20T04:14:53;2.60;;;2.40;;
36585;SDS011;22591;48.314;11.562;2023-12-20T04:17:19;2.95;;;2.75;;
36585;SDS011;22591;48.314;11.562;2023-12-20T04:19:45;3.03;;;2.83;;
36585;SDS011;22591;48.314;11.562;2023-12-20T04:22:10;2.60;;;2.40;;
36585;SDS011;22591;48.314;11.562;2023-12-20T04:24:36;3.22;;;2.83;;
36585;SDS011;22591;48.314;11.562;2023-12-20T04:27:02;2.50;;;2.40;;
36585;SDS011;22591;48.314;11.562;2023-12-20T04:29:27;2.50;;;2.40;;
36585;SDS011;22591;48.314;11.562;2023-12-20T04:31:53;3.20;;;2.90;;
36585;SDS011;22591;48.314;11.562;2023-12-20T04:34:19;2.90;;;2.80;;
36585;SDS011;22591;48.314;11.562;2023-12-20T04:36:44;3.13;;;2.92;;
36585;SDS011;22591;48.314;11.562;2023-12-20T04:39:11;3.53;;;3.33;;
36585;SDS011;22591;48.314;11.562;2023-12-20T04:41:38;3.58;;;3.33;;
36585;SDS011;22591;48.314;11.562;2023-12-20T04:44:03;3.38;;;3.17;;
36585;SDS011;22591;48.314;11.562;2023-12-20T04:46:29;5.35;;;3.58;;
36585;SDS011;22591;48.314;11.562;2023-12-20T04:48:54;4.05;;;3.75;;
36585;SDS011;22591;48.314;11.562;2023-12-20T04:51:20;4.18;;;3.88;;
36585;SDS011;22591;48.314;11.562;2023-12-20T04:53:46;4.00;;;3.70;;
36585;SDS011;22591;48.314;11.562;2023-12-20T04:56:11;4.20;;;3.90;;
36585;SDS011;22591;48.314;11.562;2023-12-20T04:58:37;5.07;;;4.68;;
36585;SDS011;22591;48.314;11.562;2023-12-20T05:01:03;4.70;;;4.30;;
36585;SDS011;22591;48.314;11.562;2023-12-20T05:03:30;4.25;;;3.95;;
36585;SDS011;22591;48.314;11.562;2023-12-20T05:05:55;6.50;;;4.65;;
36585;SDS011;22591;48.314;11.562;2023-12-20T05:08:21;4.53;;;4.22;;
36585;SDS011;22591;48.314;11.562;2023-12-20T05:10:46;5.47;;;5.05;;
36585;SDS011;22591;48.314;11.562;2023-12-20T05:13:12;6.47;;;4.90;;
36585;SDS011;22591;48.314;11.562;2023-12-20T05:15:38;5.57;;;4.95;;
36585;SDS011;22591;48.314;11.562;2023-12-20T05:18:03;7.05;;;5.32;;
36585;SDS011;22591;48.314;11.562;2023-12-20T05:20:29;5.70;;;5.30;;
36585;SDS011;22591;48.314;11.562;2023-12-20T05:22:55;6.22;;;5.65;;
36585;SDS011;22591;48.314;11.562;2023-12-20T05:25:20;5.63;;;5.20;;
36585;SDS011;22591;48.314;11.562;2023-12-20T05:27:46;6.35;;;5.85;;
36585;SDS011;22591;48.314;11.562;2023-12-20T05:30:11;6.38;;;5.93;;
36585;SDS011;22591;48.314;11.562;2023-12-20T05:32:37;6.93;;;5.72;;
36585;SDS011;22591;48.314;11.562;2023-12-20T05:35:03;6.93;;;6.43;;
36585;SDS011;22591;48.314;11.562;2023-12-20T05:37:28;6.00;;;5.60;;
36585;SDS011;22591;48.314;11.562;2023-12-20T05:39:54;6.47;;;5.97;;
36585;SDS011;22591;48.314;11.562;2023-12-20T05:42:19;7.72;;;6.97;;
36585;SDS011;22591;48.314;11.562;2023-12-20T05:44:45;6.78;;;6.18;;
36585;SDS011;22591;48.314;11.562;2023-12-20T05:47:10;7.57;;;6.97;;
36585;SDS011;22591;48.314;11.562;2023-12-20T05:49:36;7.13;;;6.50;;
36585;SDS011;22591;48.314;11.562;2023-12-20T05:52:01;7.63;;;7.03;;
36585;SDS011;22591;48.314;11.562;2023-12-20T05:54:27;7.43;;;6.82;;
36585;SDS011;22591;48.314;11.562;2023-12-20T05:56:53;8.65;;;7.82;;
36585;SDS011;22591;48.314;11.562;2023-12-20T05:59:18;7.70;;;7.00;;
36585;SDS011;22591;48.314;11.562;2023-12-20T06:01:44;7.75;;;7.15;;
36585;SDS011;22591;48.314;11.562;2023-12-20T06:04:09;6.63;;;6.13;;
36585;SDS011;22591;48.314;11.562;2023-12-20T06:06:39;6.85;;;6.35;;
36585;SDS011;22591;48.314;11.562;2023-12-20T06:11:32;7.20;;;6.70;;
36585;SDS011;22591;48.314;11.562;2023-12-20T06:13:58;6.70;;;6.30;;
36585;SDS011;22591;48.314;11.562;2023-12-20T06:16:23;6.53;;;6.00;;
36585;SDS011;22591;48.314;11.562;2023-12-20T06:18:49;7.00;;;6.50;;
36585;SDS011;22591;48.314;11.562;2023-12-20T06:21:14;5.70;;;5.30;;
36585;SDS011;22591;48.314;11.562;2023-12-20T06:23:40;5.32;;;4.93;;
36585;SDS011;22591;48.314;11.562;2023-12-20T06:26:06;5.88;;;5.47;;
36585;SDS011;22591;48.314;11.562;2023-12-20T06:28:31;5.40;;;4.97;;
36585;SDS011;22591;48.314;11.562;2023-12-20T06:30:57;5.13;;;4.80;;
36585;SDS011;22591;48.314;11.562;2023-12-20T06:33:23;5.30;;;5.00;;
36585;SDS011;22591;48.314;11.562;2023-12-20T06:35:49;6.05;;;5.55;;
36585;SDS011;22591;48.314;11.562;2023-12-20T06:38:14;5.97;;;5.40;;
36585;SDS011;22591;48.314;11.562;2023-12-20T06:40:40;6.25;;;5.85;;
36585;SDS011;22591;48.314;11.562;2023-12-20T06:43:06;5.50;;;5.18;;
36585;SDS011;22591;48.314;11.562;2023-12-20T06:45:32;7.60;;;7.00;;
36585;SDS011;22591;48.314;11.562;2023-12-20T06:47:57;6.82;;;6.32;;
36585;SDS011;22591;48.314;11.562;2023-12-20T06:50:23;5.40;;;5.00;;
36585;SDS011;22591;48.314;11.562;2023-12-20T06:52:49;6.53;;;6.03;;
36585;SDS011;22591;48.314;11.562;2023-12-20T06:55:14;5.63;;;5.13;;
36585;SDS011;22591;48.314;11.562;2023-12-20T06:57:40;5.88;;;5.47;;
36585;SDS011;22591;48.314;11.562;2023-12-20T07:00:06;5.97;;;5.68;;
36585;SDS011;22591;48.314;11.562;2023-12-20T07:02:33;6.15;;;5.55;;
36585;SDS011;22591;48.314;11.562;2023-12-20T07:04:59;6.57;;;6.05;;
36585;SDS011;22591;48.314;11.562;2023-12-20T07:07:25;6.60;;;6.00;;
36585;SDS011;22591;48.314;11.562;2023-12-20T07:09:51;6.32;;;5.93;;
36585;SDS011;22591;48.314;11.562;2023-12-20T07:12:16;7.20;;;6.60;;
36585;SDS011;22591;48.314;11.562;2023-12-20T07:14:44;6.82;;;5.72;;
36585;SDS011;22591;48.314;11.562;2023-12-20T07:17:10;6.68;;;6.22;;
36585;SDS011;22591;48.314;11.562;2023-12-20T07:19:38;7.55;;;6.85;;
36585;SDS011;22591;48.314;11.562;2023-12-20T07:22:04;7.22;;;6.63;;
36585;SDS011;22591;48.314;11.562;2023-12-20T07:24:30;7.30;;;6.70;;
36585;SDS011;22591;48.314;11.562;2023-12-20T07:26:56;6.60;;;6.10;;
36585;SDS011;22591;48.314;11.562;2023-12-20T07:29:21;6.75;;;6.30;;
36585;SDS011;22591;48.314;11.562;2023-12-20T07:31:47;6.88;;;6.28;;
36585;SDS011;22591;48.314;11.562;2023-12-20T07:34:12;6.53;;;6.05;;
36585;SDS011;22591;48.314;11.562;2023-12-20T07:36:38;7.07;;;6.57;;
36585;SDS011;22591;48.314;11.562;2023-12-20T07:39:04;6.55;;;6.05;;
36585;SDS011;22591;48.314;11.562;2023-12-20T07:41:29;7.45;;;6.85;;
36585;SDS011;22591;48.314;11.562;2023-12-20T07:43:55;6.28;;;5.75;;
36585;SDS011;22591;48.314;11.562;2023-12-20T07:46:21;6.60;;;6.10;;
36585;SDS011;22591;48.314;11.562;2023-12-20T07:48:50;6.15;;;5.75;;
36585;SDS011;22591;48.314;11.562;2023-12-20T07:51:15;7.32;;;6.68;;
36585;SDS011;22591;48.314;11.562;2023-12-20T07:53:41;6.65;;;6.13;;
36585;SDS011;22591;48.314;11.562;2023-12-20T07:56:19;8.73;;;7.28;;
36585;SDS011;22591;48.314;11.562;2023-12-20T07:58:45;6.72;;;6.15;;
36585;SDS011;22591;48.314;11.562;2023-12-20T08:01:11;5.85;;;5.43;;
36585;SDS011;22591;48.314;11.562;2023-12-20T08:03:37;7.75;;;7.05;;
36585;SDS011;22591;48.314;11.562;2023-12-20T08:06:03;8.25;;;7.55;;
36585;SDS011;22591;48.314;11.562;2023-12-20T08:08:29;7.15;;;6.40;;
36585;SDS011;22591;48.314;11.562;2023-12-20T08:10:55;5.78;;;5.38;;
36585;SDS011;22591;48.314;11.562;2023-12-20T08:13:24;5.45;;;5.05;;
36585;SDS011;22591;48.314;11.562;2023-12-20T08:15:51;5.25;;;4.95;;
36585;SDS011;22591;48.314;11.562;2023-12-20T08:18:17;5.68;;;5.38;;
36585;SDS011;22591;48.314;11.562;2023-12-20T08:20:43;5.28;;;4.88;;
36585;SDS011;22591;48.314;11.562;2023-12-20T08:23:08;6.43;;;5.97;;
36585;SDS011;22591;48.314;11.562;2023-12-20T08:25:34;5.55;;;5.15;;
36585;SDS011;22591;48.314;11.562;2023-12-20T08:27:59;6.05;;;5.63;;
36585;SDS011;22591;48.314;11.562;2023-12-20T08:30:26;4.78;;;4.47;;
36585;SDS011;22591;48.314;11.562;2023-12-20T08:32:51;6.35;;;5.72;;
36585;SDS011;22591;48.314;11.562;2023-12-20T08:35:17;4.60;;;4.25;;
36585;SDS011;22591;48.314;11.562;2023-12-20T08:37:43;4.90;;;4.50;;
36585;SDS011;22591;48.314;11.562;2023-12-20T08:40:09;5.55;;;5.13;;
36585;SDS011;22591;48.314;11.562;2023-12-20T08:42:35;4.65;;;4.25;;
36585;SDS011;22591;48.314;11.562;2023-12-20T08:45:00;4.80;;;4.50;;
36585;SDS011;22591;48.314;11.562;2023-12-20T08:47:26;4.35;;;4.05;;
36585;SDS011;22591;48.314;11.562;2023-12-20T08:49:52;5.15;;;4.70;;
36585;SDS011;22591;48.314;11.562;2023-12-20T08:52:23;5.27;;;4.83;;
36585;SDS011;22591;48.314;11.562;2023-12-20T08:54:49;4.60;;;4.20;;
36585;SDS011;22591;48.314;11.562;2023-12-20T08:57:17;5.00;;;4.65;;
36585;SDS011;22591;48.314;11.562;2023-12-20T08:59:45;4.22;;;3.97;;
36585;SDS011;22591;48.314;11.562;2023-12-20T09:02:11;4.53;;;4.22;;
36585;SDS011;22591;48.314;11.562;2023-12-20T09:04:37;5.32;;;4.90;;
36585;SDS011;22591;48.314;11.562;2023-12-20T09:07:03;3.83;;;3.63;;
36585;SDS011;22591;48.314;11.562;2023-12-20T09:09:28;4.30;;;4.10;;
36585;SDS011;22591;48.314;11.562;2023-12-20T09:11:54;3.95;;;3.72;;
36585;SDS011;22591;48.314;11.562;2023-12-20T09:14:19;3.70;;;3.50;;
36585;SDS011;22591;48.314;11.562;2023-12-20T09:16:45;3.85;;;3.58;;
36585;SDS011;22591;48.314;11.562;2023-12-20T09:19:10;3.78;;;3.50;;
36585;SDS011;22591;48.314;11.562;2023-12-20T09:21:36;4.18;;;3.88;;
36585;SDS011;22591;48.314;11.562;2023-12-20T09:24:01;4.00;;;3.80;;
36585;SDS011;22591;48.314;11.562;2023-12-20T09:26:28;3.78;;;3.55;;
36585;SDS011;22591;48.314;11.562;2023-12-20T09:28:53;4.18;;;3.90;;
36585;SDS011;22591;48.314;11.562;2023-12-20T09:31:19;4.53;;;4.22;;
36585;SDS011;22591;48.314;11.562;2023-12-20T09:33:44;4.05;;;3.83;;
36585;SDS011;22591;48.314;11.562;2023-12-20T09:36:10;5.25;;;4.93;;
36585;SDS011;22591;48.314;11.562;2023-12-20T09:38:35;4.38;;;4.07;;
36585;SDS011;22591;48.314;11.562;2023-12-20T09:41:01;4.28;;;3.97;;
36585;SDS011;22591;48.314;11.562;2023-12-20T09:43:29;3.95;;;3.72;;
36585;SDS011;22591;48.314;11.562;2023-12-20T09:45:55;3.63;;;3.42;;
36585;SDS011;22591;48.314;11.562;2023-12-20T09:48:25;3.40;;;3.20;;
36585;SDS011;22591;48.314;11.562;2023-12-20T09:50:52;4.75;;;4.45;;
36585;SDS011;22591;48.314;11.562;2023-12-20T09:53:18;3.90;;;3.60;;
36585;SDS011;22591;48.314;11.562;2023-12-20T09:55:44;3.53;;;3.33;;
36585;SDS011;22591;48.314;11.562;2023-12-20T09:58:10;3.75;;;3.55;;
36585;SDS011;22591;48.314;11.562;2023-12-20T10:00:36;4.22;;;3.97;;
36585;SDS011;22591;48.314;11.562;2023-12-20T10:03:01;3.72;;;3.53;;
36585;SDS011;22591;48.314;11.562;2023-12-20T10:05:29;3.50;;;3.30;;
36585;SDS011;22591;48.314;11.562;2023-12-20T10:07:56;3.90;;;3.70;;
36585;SDS011;22591;48.314;11.562;2023-12-20T10:10:22;3.72;;;3.50;;
36585;SDS011;22591;48.314;11.562;2023-12-20T10:13:01;3.70;;;3.13;;
36585;SDS011;22591;48.314;11.562;2023-12-20T10:15:28;4.50;;;4.20;;
36585;SDS011;22591;48.314;11.562;2023-12-20T10:17:54;3.90;;;3.70;;
36585;SDS011;22591;48.314;11.562;2023-12-20T10:20:20;3.67;;;3.47;;
36585;SDS011;22591;48.314;11.562;2023-12-20T10:22:46;8.07;;;6.68;;
36585;SDS011;22591;48.314;11.562;2023-12-20T10:25:12;5.05;;;4.65;;
36585;SDS011;22591;48.314;11.562;2023-12-20T10:27:38;6.32;;;5.72;;
36585;SDS011;22591;48.314;11.562;2023-12-20T10:30:03;5.43;;;4.95;;
36585;SDS011;22591;48.314;11.562;2023-12-20T10:32:29;7.53;;;5.57;;
36585;SDS011;22591;48.314;11.562;2023-12-20T10:34:56;4.22;;;3.85;;
36585;SDS011;22591;48.314;11.562;2023-12-20T10:37:22;4.72;;;4.32;;
36585;SDS011;22591;48.314;11.562;2023-12-20T10:39:51;5.28;;;4.88;;
36585;SDS011;22591;48.314;11.562;2023-12-20T10:42:22;5.72;;;5.18;;
36585;SDS011;22591;48.314;11.562;2023-12-20T10:44:51;4.45;;;4.15;;
36585;SDS011;22591;48.314;11.562;2023-12-20T10:47:18;4.20;;;3.90;;
36585;SDS011;22591;48.314;11.562;2023-12-20T10:49:47;4.43;;;4.13;;
36585;SDS011;22591;48.314;11.562;2023-12-20T10:52:13;4.32;;;4.13;;
36585;SDS011;22591;48.314;11.562;2023-12-20T10:54:40;4.53;;;4.22;;
36585;SDS011;22591;48.314;11.562;2023-12-20T10:57:06;4.32;;;4.03;;
36585;SDS011;22591;48.314;11.562;2023-12-20T10:59:33;4.00;;;3.70;;
36585;SDS011;22591;48.314;11.562;2023-12-20T11:02:01;3.45;;;3.15;;
36585;SDS011;22591;48.314;11.562;2023-12-20T11:04:33;3.72;;;3.53;;
36585;SDS011;22591;48.314;11.562;2023-12-20T11:10:20;3.70;;;3.50;;
36585;SDS011;22591;48.314;11.562;2023-12-20T11:12:53;3.85;;;3.55;;
36585;SDS011;22591;48.314;11.562;2023-12-20T11:15:23;3.40;;;3.20;;
36585;SDS011;22591;48.314;11.562;2023-12-20T11:17:56;3.80;;;3.47;;
36585;SDS011;22591;48.314;11.562;2023-12-20T11:20:23;3.28;;;3.08;;
36585;SDS011;22591;48.314;11.562;2023-12-20T11:22:52;3.45;;;3.25;;
36585;SDS011;22591;48.314;11.562;2023-12-20T11:25:19;3.38;;;3.17;;
36585;SDS011;22591;48.314;11.562;2023-12-20T11:27:44;4.13;;;3.83;;
36585;SDS011;22591;48.314;11.562;2023-12-20T11:30:40;4.30;;;3.95;;
36585;SDS011;22591;48.314;11.562;2023-12-20T11:33:07;4.47;;;4.07;;
36585;SDS011;22591;48.314;11.562;2023-12-20T11:35:33;4.03;;;3.78;;
36585;SDS011;22591;48.314;11.562;2023-12-20T11:38:00;5.78;;;4.57;;
36585;SDS011;22591;48.314;11.562;2023-12-20T11:40:26;4.63;;;4.22;;
36585;SDS011;22591;48.314;11.562;2023-12-20T11:42:51;4.90;;;4.55;;
36585;SDS011;22591;48.314;11.562;2023-12-20T11:45:19;5.45;;;5.05;;
36585;SDS011;22591;48.314;11.562;2023-12-20T11:47:47;5.22;;;4.85;;
36585;SDS011;22591;48.314;11.562;2023-12-20T11:50:15;3.10;;;3.00;;
36585;SDS011;22591;48.314;11.562;2023-12-20T11:52:41;2.45;;;2.35;;
36585;SDS011;22591;48.314;11.562;2023-12-20T11:55:06;3.33;;;3.13;;
36585;SDS011;22591;48.314;11.562;2023-12-20T11:57:32;2.45;;;2.35;;
36585;SDS011;22591;48.314;11.562;2023-12-20T11:59:58;2.45;;;2.35;;
36585;SDS011;22591;48.314;11.562;2023-12-20T12:02:24;2.33;;;2.22;;
36585;SDS011;22591;48.314;11.562;2023-12-20T12:04:50;2.08;;;1.98;;
36585;SDS011;22591;48.314;11.562;2023-12-20T12:07:15;2.70;;;2.53;;
36585;SDS011;22591;48.314;11.562;2023-12-20T12:09:42;3.33;;;3.13;;
36585;SDS011;22591;48.314;11.562;2023-12-20T12:12:08;3.33;;;3.00;;
36585;SDS011;22591;48.314;11.562;2023-12-20T12:14:34;2.50;;;2.40;;
36585;SDS011;22591;48.314;11.562;2023-12-20T12:17:01;3.05;;;2.85;;
36585;SDS011;22591;48.314;11.562;2023-12-20T12:19:27;3.20;;;2.80;;
36585;SDS011;22591;48.314;11.562;2023-12-20T12:22:04;3.25;;;3.05;;
36585;SDS011;22591;48.314;11.562;2023-12-20T12:24:33;3.35;;;3.15;;
36585;SDS011;22591;48.314;11.562;2023-12-20T12:26:59;3.75;;;3.55;;
36585;SDS011;22591;48.314;11.562;2023-12-20T12:29:24;3.22;;;3.03;;
36585;SDS011;22591;48.314;11.562;2023-12-20T12:31:50;3.33;;;3.13;;
36585;SDS011;22591;48.314;11.562;2023-12-20T12:34:16;2.97;;;2.55;;
36585;SDS011;22591;48.314;11.562;2023-12-20T12:36:42;3.17;;;3.05;;
36585;SDS011;22591;48.314;11.562;2023-12-20T12:39:08;3.90;;;3.60;;
36585;SDS011;22591;48.314;11.562;2023-12-20T12:41:34;3.92;;;3.72;;
36585;SDS011;22591;48.314;11.562;2023-12-20T12:44:00;3.28;;;3.08;;
36585;SDS011;22591;48.314;11.562;2023-12-20T12:46:25;3.58;;;3.38;;
36585;SDS011;22591;48.314;11.562;2023-12-20T12:48:51;3.40;;;3.20;;
36585;SDS011;22591;48.314;11.562;2023-12-20T12:51:16;3.13;;;2.92;;
36585;SDS011;22591;48.314;11.562;2023-12-20T12:53:42;3.38;;;3.17;;
36585;SDS011;22591;48.314;11.562;2023-12-20T12:56:08;5.50;;;2.92;;
36585;SDS011;22591;48.314;11.562;2023-12-20T12:58:33;2.67;;;2.47;;
36585;SDS011;22591;48.314;11.562;2023-12-20T13:00:59;2.85;;;2.65;;
36585;SDS011;22591;48.314;11.562;2023-12-20T13:03:25;2.75;;;2.55;;
36585;SDS011;22591;48.314;11.562;2023-12-20T13:05:50;2.47;;;2.25;;
36585;SDS011;22591;48.314;11.562;2023-12-20T13:08:16;3.22;;;2.90;;
36585;SDS011;22591;48.314;11.562;2023-12-20T13:10:41;2.78;;;2.50;;
36585;SDS011;22591;48.314;11.562;2023-12-20T13:13:07;3.83;;;2.75;;
36585;SDS011;22591;48.314;11.562;2023-12-20T13:15:32;3.72;;;2.47;;
36585;SDS011;22591;48.314;11.562;2023-12-20T13:17:58;3.88;;;2.58;;
36585;SDS011;22591;48.314;11.562;2023-12-20T13:20:25;5.03;;;3.03;;
36585;SDS011;22591;48.314;11.562;2023-12-20T13:22:50;3.88;;;3.33;;
36585;SDS011;22591;48.314;11.562;2023-12-20T13:25:16;3.10;;;2.80;;
36585;SDS011;22591;48.314;11.562;2023-12-20T13:27:41;3.08;;;2.88;;
36585;SDS011;22591;48.314;11.562;2023-12-20T13:30:07;4.13;;;3.72;;
36585;SDS011;22591;48.314;11.562;2023-12-20T13:32:33;4.47;;;4.07;;
36585;SDS011;22591;48.314;11.562;2023-12-20T13:34:58;6.70;;;4.65;;
36585;SDS011;22591;48.314;11.562;2023-12-20T13:37:24;9.10;;;6.05;;
36585;SDS011;22591;48.314;11.562;2023-12-20T13:39:49;6.32;;;5.18;;
36585;SDS011;22591;48.314;11.562;2023-12-20T13:42:15;6.93;;;4.45;;
36585;SDS011;22591;48.314;11.562;2023-12-20T13:44:41;9.65;;;7.63;;
36585;SDS011;22591;48.314;11.562;2023-12-20T13:47:06;13.02;;;8.98;;
36585;SDS011;22591;48.314;11.562;2023-12-20T13:49:32;7.75;;;6.15;;
36585;SDS011;22591;48.314;11.562;2023-12-20T13:51:58;3.97;;;3.50;;
36585;SDS011;22591;48.314;11.562;2023-12-20T13:54:24;4.38;;;3.40;;
36585;SDS011;22591;48.314;11.562;2023-12-20T13:56:49;4.55;;;4.13;;
36585;SDS011;22591;48.314;11.562;2023-12-20T13:59:15;7.00;;;3.42;;
36585;SDS011;22591;48.314;11.562;2023-12-20T14:01:41;4.90;;;3.38;;
36585;SDS011;22591;48.314;11.562;2023-12-20T14:04:06;2.22;;;2.03;;
36585;SDS011;22591;48.314;11.562;2023-12-20T14:06:32;3.70;;;3.08;;
36585;SDS011;22591;48.314;11.562;2023-12-20T14:08:58;3.92;;;2.75;;
36585;SDS011;22591;48.314;11.562;2023-12-20T14:11:27;5.13;;;3.28;;
36585;SDS011;22591;48.314;11.562;2023-12-20T14:13:52;5.50;;;2.40;;
36585;SDS011;22591;48.314;11.562;2023-12-20T14:16:22;2.50;;;2.35;;
36585;SDS011;22591;48.314;11.562;2023-12-20T14:18:48;3.03;;;2.45;;
36585;SDS011;22591;48.314;11.562;2023-12-20T14:21:14;4.15;;;2.45;;
36585;SDS011;22591;48.314;11.562;2023-12-20T14:23:39;5.07;;;2.92;;
36585;SDS011;22591;48.314;11.562;2023-12-20T14:26:05;4.07;;;2.20;;
36585;SDS011;22591;48.314;11.562;2023-12-20T14:28:30;2.58;;;2.38;;
36585;SDS011;22591;48.314;11.562;2023-12-20T14:30:56;3.13;;;1.70;;
36585;SDS011;22591;48.314;11.562;2023-12-20T14:33:21;3.92;;;2.28;;
36585;SDS011;22591;48.314;11.562;2023-12-20T14:35:47;4.07;;;2.20;;